createdAt,value
2022-11-04T00:00:56.861Z,11.20
2022-11-04T00:03:24.090Z,14.23
2022-11-04T00:05:51.379Z,11.80
2022-11-04T00:08:24.431Z,9.80
2022-11-04T00:11:13.778Z,10.63
2022-11-04T00:13:41.121Z,10.87
2022-11-04T00:16:27.516Z,8.80
2022-11-04T00:18:54.661Z,9.43
2022-11-04T00:21:40.588Z,11.27
2022-11-04T00:24:26.399Z,9.60
2022-11-04T00:27:12.507Z,10.03
2022-11-04T00:29:39.665Z,9.70
2022-11-04T00:32:25.860Z,8.23
2022-11-04T00:34:53.064Z,6.90
2022-11-04T00:37:20.327Z,6.97
2022-11-04T00:39:47.412Z,6.03
2022-11-04T00:42:14.560Z,5.90
2022-11-04T00:44:41.665Z,5.43
2022-11-04T00:47:08.837Z,5.17
2022-11-04T00:49:36.141Z,4.60
2022-11-04T00:52:03.222Z,4.60
2022-11-04T00:54:30.319Z,3.80
2022-11-04T00:56:57.440Z,4.30
2022-11-04T00:59:24.511Z,3.97
2022-11-04T01:01:51.803Z,3.87
2022-11-04T01:04:19.203Z,5.27
2022-11-04T01:06:46.370Z,3.60
2022-11-04T01:09:13.685Z,4.80
2022-11-04T01:11:40.780Z,4.17
2022-11-04T01:14:07.885Z,3.70
2022-11-04T01:16:35.133Z,3.80
2022-11-04T01:19:02.703Z,3.40
2022-11-04T01:21:29.802Z,3.10
2022-11-04T01:23:56.909Z,3.47
2022-11-04T01:26:24.768Z,2.83
2022-11-04T01:28:52.332Z,3.67
2022-11-04T01:31:21.484Z,4.00
2022-11-04T01:33:48.725Z,2.50
2022-11-04T01:36:16.042Z,2.67
2022-11-04T01:38:43.804Z,2.93
2022-11-04T01:41:12.571Z,3.63
2022-11-04T01:43:46.138Z,3.30
2022-11-04T01:46:14.313Z,2.10
2022-11-04T01:48:41.496Z,1.97
2022-11-04T01:51:08.736Z,2.20
2022-11-04T01:53:36.833Z,4.10
2022-11-04T01:56:11.816Z,1.47
2022-11-04T01:58:40.539Z,1.83
2022-11-04T02:01:08.262Z,2.03
2022-11-04T02:03:36.029Z,1.80
2022-11-04T02:06:03.176Z,1.80
2022-11-04T02:08:30.249Z,1.50
2022-11-04T02:11:01.154Z,1.70
2022-11-04T02:13:28.355Z,1.30
2022-11-04T02:16:01.793Z,1.60
2022-11-04T02:18:58.159Z,1.23
2022-11-04T02:21:28.158Z,1.90
2022-11-04T02:23:55.218Z,1.40
2022-11-04T02:26:31.333Z,2.00
2022-11-04T02:29:16.984Z,1.40
2022-11-04T02:31:47.577Z,1.73
2022-11-04T02:34:26.983Z,2.83
2022-11-04T02:36:56.837Z,1.20
2022-11-04T02:39:28.081Z,1.63
2022-11-04T02:42:04.461Z,1.30
2022-11-04T02:44:36.269Z,1.40
2022-11-04T02:47:04.493Z,1.20
2022-11-04T02:49:50.239Z,2.17
2022-11-04T02:52:18.950Z,1.50
2022-11-04T02:54:52.303Z,1.27
2022-11-04T02:57:21.004Z,1.70
2022-11-04T02:59:53.497Z,2.53
2022-11-04T03:02:23.200Z,1.30
2022-11-04T03:04:51.116Z,1.63
2022-11-04T03:07:18.610Z,2.10
2022-11-04T03:09:47.006Z,1.57
2022-11-04T03:12:15.030Z,1.73
2022-11-04T03:14:43.190Z,1.17
2022-11-04T03:17:13.364Z,1.33
2022-11-04T03:19:40.442Z,1.10
2022-11-04T03:22:09.772Z,1.33
2022-11-04T03:24:36.878Z,1.17
2022-11-04T03:27:06.545Z,1.53
2022-11-04T03:29:37.896Z,1.40
2022-11-04T03:32:09.124Z,1.90
2022-11-04T03:34:36.750Z,1.10
2022-11-04T03:37:03.948Z,1.20
2022-11-04T03:39:31.212Z,2.80
2022-11-04T03:41:58.628Z,0.90
2022-11-04T03:44:25.833Z,0.80
2022-11-04T03:46:56.645Z,0.90
2022-11-04T03:49:23.727Z,0.97
2022-11-04T03:51:51.462Z,1.13
2022-11-04T03:54:18.548Z,0.87
2022-11-04T03:56:54.814Z,1.30
2022-11-04T03:59:37.010Z,1.20
2022-11-04T04:02:06.484Z,3.00
2022-11-04T04:04:38.265Z,0.60
2022-11-04T04:07:06.245Z,0.70
2022-11-04T04:09:36.488Z,0.90
2022-11-04T04:12:08.523Z,0.77
2022-11-04T04:14:39.819Z,0.90
2022-11-04T04:19:45.846Z,0.80
2022-11-04T04:22:20.192Z,0.87
2022-11-04T04:25:06.884Z,0.80
2022-11-04T04:27:34.149Z,1.30
2022-11-04T04:30:02.458Z,0.83
2022-11-04T04:32:29.674Z,0.67
2022-11-04T04:35:16.715Z,0.70
2022-11-04T04:37:44.133Z,0.90
2022-11-04T04:40:30.900Z,1.40
2022-11-04T04:43:16.571Z,0.80
2022-11-04T04:45:43.999Z,0.50
2022-11-04T04:48:13.247Z,0.47
2022-11-04T04:50:41.649Z,0.53
2022-11-04T04:53:08.945Z,0.73
2022-11-04T04:55:40.699Z,1.07
2022-11-04T04:58:09.143Z,0.70
2022-11-04T05:00:36.270Z,0.63
2022-11-04T05:03:03.419Z,0.93
2022-11-04T05:05:30.516Z,0.70
2022-11-04T05:08:04.503Z,2.10
2022-11-04T05:10:31.631Z,0.70
2022-11-04T05:13:32.445Z,0.60
2022-11-04T05:16:09.515Z,2.13
2022-11-04T05:18:36.976Z,0.70
2022-11-04T05:21:05.105Z,0.60
2022-11-04T05:23:32.292Z,1.20
2022-11-04T05:25:59.777Z,0.50
2022-11-04T05:28:26.888Z,1.23
2022-11-04T05:30:54.198Z,0.80
2022-11-04T05:33:21.377Z,2.00
2022-11-04T05:35:48.597Z,0.70
2022-11-04T05:38:15.940Z,1.00
2022-11-04T05:40:43.230Z,4.20
2022-11-04T05:43:10.699Z,1.17
2022-11-04T05:45:38.050Z,1.60
2022-11-04T05:48:05.435Z,3.90
2022-11-04T05:50:32.809Z,1.33
2022-11-04T05:53:02.942Z,0.70
2022-11-04T05:55:30.082Z,1.00
2022-11-04T05:58:03.603Z,2.10
2022-11-04T06:00:33.480Z,3.30
2022-11-04T06:03:00.664Z,3.67
2022-11-04T06:05:30.650Z,0.97
2022-11-04T06:07:57.774Z,2.33
2022-11-04T06:10:25.353Z,3.80
2022-11-04T06:12:52.482Z,1.00
2022-11-04T06:15:19.598Z,1.47
2022-11-04T06:17:49.593Z,2.10
2022-11-04T06:20:16.751Z,6.07
2022-11-04T06:22:43.953Z,2.10
2022-11-04T06:25:11.097Z,2.87
2022-11-04T06:27:41.384Z,1.90
2022-11-04T06:30:08.978Z,3.50
2022-11-04T06:32:36.067Z,2.17
2022-11-04T06:35:03.170Z,2.00
2022-11-04T06:37:30.246Z,1.87
2022-11-04T06:39:59.506Z,1.40
2022-11-04T06:42:27.743Z,2.20
2022-11-04T06:44:54.830Z,3.90
2022-11-04T06:47:29.245Z,4.67
2022-11-04T06:49:59.272Z,4.07
2022-11-04T06:52:28.972Z,4.10
2022-11-04T06:55:13.372Z,4.13
2022-11-04T06:57:40.502Z,13.33
2022-11-04T07:00:07.910Z,11.50
2022-11-04T07:02:36.531Z,10.57
2022-11-04T07:05:04.799Z,43.17
2022-11-04T07:07:32.039Z,41.27
2022-11-04T07:09:59.099Z,56.37
2022-11-04T07:12:26.278Z,47.70
2022-11-04T07:14:53.548Z,61.50
2022-11-04T07:17:20.676Z,23.80
2022-11-04T07:19:47.850Z,13.30
2022-11-04T07:22:17.234Z,8.43
2022-11-04T07:24:44.560Z,8.40
2022-11-04T07:27:11.630Z,18.70
2022-11-04T07:29:41.491Z,6.70
2022-11-04T07:32:08.591Z,5.53
2022-11-04T07:34:35.684Z,5.03
2022-11-04T07:37:03.015Z,3.93
2022-11-04T07:39:30.185Z,3.20
2022-11-04T07:42:00.149Z,2.03
2022-11-04T07:44:27.301Z,2.10
2022-11-04T07:46:54.421Z,2.33
2022-11-04T07:49:21.569Z,4.30
2022-11-04T07:51:48.747Z,3.07
2022-11-04T07:54:15.832Z,8.00
2022-11-04T07:56:42.964Z,12.43
2022-11-04T07:59:11.109Z,9.47
2022-11-04T08:01:38.368Z,19.30
2022-11-04T08:04:07.164Z,3.33
2022-11-04T08:06:34.275Z,3.33
2022-11-04T08:09:01.468Z,2.80
2022-11-04T08:11:28.753Z,2.97
2022-11-04T08:13:56.239Z,3.93
2022-11-04T08:16:23.810Z,4.30
2022-11-04T08:18:52.557Z,4.17
2022-11-04T08:21:20.353Z,2.90
2022-11-04T08:23:48.181Z,11.43
2022-11-04T08:26:17.882Z,4.73
2022-11-04T08:28:45.507Z,3.10
2022-11-04T08:31:13.141Z,3.00
2022-11-04T08:33:40.953Z,4.10
2022-11-04T08:36:12.280Z,3.40
2022-11-04T08:38:39.456Z,6.80
2022-11-04T08:41:07.020Z,4.93
2022-11-04T08:43:34.816Z,6.10
2022-11-04T08:46:02.055Z,4.23
2022-11-04T08:48:29.190Z,2.50
2022-11-04T08:50:58.765Z,2.90
2022-11-04T08:53:26.082Z,3.47
2022-11-04T08:55:53.386Z,3.30
2022-11-04T08:58:20.559Z,3.63
2022-11-04T09:00:47.708Z,4.47
2022-11-04T09:03:14.834Z,2.77
2022-11-04T09:05:45.717Z,2.37
2022-11-04T09:08:13.043Z,3.10
2022-11-04T09:10:43.684Z,5.80
2022-11-04T09:13:11.823Z,3.23
2022-11-04T09:15:39.289Z,2.90
2022-11-04T09:18:06.458Z,1.97
2022-11-04T09:20:34.063Z,2.97
2022-11-04T09:23:01.185Z,3.17
2022-11-04T09:25:28.254Z,5.10
2022-11-04T09:27:55.411Z,5.60
2022-11-04T09:30:22.532Z,6.40
2022-11-04T09:32:52.738Z,4.90
2022-11-04T09:35:20.300Z,2.80
2022-11-04T09:37:47.474Z,4.40
2022-11-04T09:40:15.802Z,9.80
2022-11-04T09:42:46.453Z,8.97
2022-11-04T09:45:22.958Z,17.77
2022-11-04T09:47:50.862Z,12.40
2022-11-04T09:50:19.994Z,10.97
2022-11-04T09:52:48.178Z,4.20
2022-11-04T09:55:15.246Z,3.90
2022-11-04T09:57:42.419Z,3.20
2022-11-04T10:00:16.068Z,4.17
2022-11-04T10:03:01.783Z,4.20
2022-11-04T10:06:01.349Z,5.40
2022-11-04T10:08:37.852Z,3.80
2022-11-04T10:11:06.651Z,3.73
2022-11-04T10:13:33.727Z,3.93
2022-11-04T10:16:06.603Z,2.63
2022-11-04T10:18:36.446Z,2.13
2022-11-04T10:21:04.547Z,2.33
2022-11-04T10:23:45.896Z,2.50
2022-11-04T10:26:19.387Z,2.23
2022-11-04T10:28:48.755Z,4.40
2022-11-04T10:31:16.344Z,2.63
2022-11-04T10:33:50.843Z,3.30
2022-11-04T10:36:18.050Z,2.40
2022-11-04T10:38:57.314Z,4.13
2022-11-04T10:41:24.448Z,3.93
2022-11-04T10:43:52.134Z,2.77
2022-11-04T10:46:34.263Z,2.30
2022-11-04T10:49:04.605Z,2.63
2022-11-04T10:51:32.536Z,2.30
2022-11-04T10:53:59.994Z,2.50
2022-11-04T10:56:36.862Z,3.20
2022-11-04T10:59:26.824Z,2.93
2022-11-04T11:01:57.537Z,1.87
2022-11-04T11:04:25.898Z,2.00
2022-11-04T11:06:53.672Z,1.70
2022-11-04T11:09:31.042Z,2.40
2022-11-04T11:12:00.997Z,2.40
2022-11-04T11:14:31.245Z,2.40
2022-11-04T11:16:58.833Z,2.40
2022-11-04T11:19:26.030Z,2.70
2022-11-04T11:21:54.538Z,2.40
2022-11-04T11:24:22.720Z,3.53
2022-11-04T11:26:59.878Z,1.30
2022-11-04T11:29:30.464Z,2.57
2022-11-04T11:31:57.771Z,3.00
2022-11-04T11:34:26.624Z,1.30
2022-11-04T11:36:54.342Z,3.07
2022-11-04T11:39:22.822Z,2.23
2022-11-04T11:41:53.469Z,2.30
2022-11-04T11:44:44.373Z,1.70
2022-11-04T11:47:36.931Z,1.63
2022-11-04T11:50:20.418Z,2.33
2022-11-04T11:52:48.171Z,2.60
2022-11-04T11:55:21.133Z,3.47
2022-11-04T12:01:02.045Z,2.40
2022-11-04T12:06:34.169Z,2.10
2022-11-04T12:09:34.596Z,2.50
2022-11-04T12:12:06.327Z,2.73
2022-11-04T12:14:42.475Z,3.57
2022-11-04T12:17:14.815Z,2.77
2022-11-04T12:19:47.686Z,2.37
2022-11-04T12:22:14.821Z,2.60
2022-11-04T12:24:53.449Z,1.90
2022-11-04T12:27:23.566Z,2.43
2022-11-04T12:30:01.293Z,3.90
2022-11-04T12:32:31.174Z,15.63
2022-11-04T12:35:11.798Z,7.50
2022-11-04T12:37:44.580Z,3.13
2022-11-04T12:40:11.693Z,3.73
2022-11-04T12:42:48.596Z,5.40
2022-11-04T12:45:34.555Z,6.67
2022-11-04T12:48:11.288Z,4.17
2022-11-04T12:50:47.667Z,2.50
2022-11-04T12:53:20.558Z,11.83
2022-11-04T12:56:16.982Z,7.13
2022-11-04T12:58:46.817Z,4.50
2022-11-04T13:01:25.120Z,4.27
2022-11-04T13:03:55.520Z,2.40
2022-11-04T13:06:40.821Z,2.10
2022-11-04T13:09:28.182Z,1.70
2022-11-04T13:11:55.810Z,1.33
2022-11-04T13:14:30.901Z,2.33
2022-11-04T13:17:01.864Z,4.30
2022-11-04T13:19:34.843Z,4.27
2022-11-04T13:22:03.081Z,4.80
2022-11-04T13:24:35.481Z,4.47
2022-11-04T13:27:04.793Z,8.73
2022-11-04T13:29:34.499Z,3.30
2022-11-04T13:32:31.519Z,3.90
2022-11-04T13:35:02.067Z,7.47
2022-11-04T13:37:30.697Z,9.17
2022-11-04T13:40:03.032Z,6.10
2022-11-04T13:42:30.214Z,4.83
2022-11-04T13:44:57.944Z,6.93
2022-11-04T13:47:30.334Z,3.60
2022-11-04T13:49:57.483Z,5.20
2022-11-04T13:52:25.188Z,3.83
2022-11-04T13:54:55.396Z,7.67
2022-11-04T13:57:23.301Z,4.07
2022-11-04T14:00:07.743Z,3.50
2022-11-04T14:02:38.963Z,12.77
2022-11-04T14:05:24.900Z,6.20
2022-11-04T14:08:01.501Z,5.83
2022-11-04T14:10:41.140Z,5.37
2022-11-04T14:13:27.080Z,5.97
2022-11-04T14:16:04.381Z,7.40
2022-11-04T14:18:35.310Z,2.93
2022-11-04T14:21:15.499Z,2.63
2022-11-04T14:23:43.721Z,3.60
2022-11-04T14:26:11.763Z,4.03
2022-11-04T14:28:38.899Z,3.13
2022-11-04T14:31:08.962Z,2.97
2022-11-04T14:33:56.977Z,3.00
2022-11-04T14:36:25.822Z,3.10
2022-11-04T14:38:53.699Z,2.20
2022-11-04T14:41:44.066Z,2.37
2022-11-04T14:44:15.486Z,2.90
2022-11-04T14:46:46.055Z,3.47
2022-11-04T14:49:31.634Z,3.13
2022-11-04T14:51:58.704Z,3.20
2022-11-04T14:54:26.461Z,3.37
2022-11-04T14:56:53.737Z,3.17
2022-11-04T14:59:21.795Z,3.80
2022-11-04T15:01:49.361Z,13.27
2022-11-04T15:04:22.386Z,72.23
2022-11-04T15:07:02.133Z,17.27
2022-11-04T15:09:34.507Z,7.30
2022-11-04T15:12:20.288Z,9.40
2022-11-04T15:14:47.392Z,5.77
2022-11-04T15:17:17.242Z,8.40
2022-11-04T15:19:45.870Z,6.63
2022-11-04T15:22:12.954Z,5.70
2022-11-04T15:24:40.028Z,5.77
2022-11-04T15:27:07.220Z,6.10
2022-11-04T15:29:34.651Z,5.47
2022-11-04T15:32:04.934Z,5.23
2022-11-04T15:34:32.622Z,4.90
2022-11-04T15:37:03.934Z,4.30
2022-11-04T15:39:31.610Z,6.80
2022-11-04T15:42:17.997Z,8.00
2022-11-04T15:44:45.990Z,17.87
2022-11-04T15:47:19.144Z,27.23
2022-11-04T15:49:49.732Z,20.90
2022-11-04T15:52:26.783Z,14.17
2022-11-04T15:54:54.649Z,13.27
2022-11-04T15:57:25.232Z,9.57
2022-11-04T15:59:52.786Z,11.50
2022-11-04T16:02:22.967Z,9.57
2022-11-04T16:05:02.416Z,18.37
2022-11-04T16:07:31.396Z,13.63
2022-11-04T16:09:58.481Z,8.00
2022-11-04T16:12:27.019Z,5.90
2022-11-04T16:15:00.349Z,6.50
2022-11-04T16:17:27.933Z,6.10
2022-11-04T16:20:02.119Z,5.70
2022-11-04T16:22:30.882Z,4.87
2022-11-04T16:24:58.175Z,4.50
2022-11-04T16:27:25.951Z,3.97
2022-11-04T16:29:59.833Z,3.10
2022-11-04T16:32:28.056Z,3.60
2022-11-04T16:35:01.830Z,5.40
2022-11-04T16:37:30.133Z,3.73
2022-11-04T16:39:57.317Z,3.27
2022-11-04T16:42:24.718Z,3.50
2022-11-04T16:44:52.749Z,5.43
2022-11-04T16:47:19.865Z,3.50
2022-11-04T16:49:47.005Z,14.20
2022-11-04T16:52:20.362Z,5.33
2022-11-04T16:54:48.341Z,5.90
2022-11-04T16:57:15.615Z,5.43
2022-11-04T16:59:45.012Z,5.97
2022-11-04T17:02:15.432Z,6.33
2022-11-04T17:04:44.242Z,4.27
2022-11-04T17:07:11.398Z,5.83
2022-11-04T17:09:38.514Z,3.60
2022-11-04T17:12:06.047Z,5.17
2022-11-04T17:14:33.305Z,12.43
2022-11-04T17:17:00.543Z,8.83
2022-11-04T17:19:33.401Z,5.97
2022-11-04T17:22:02.954Z,4.80
2022-11-04T17:24:30.398Z,6.47
2022-11-04T17:26:57.621Z,4.57
2022-11-04T17:29:25.947Z,4.40
2022-11-04T17:31:53.789Z,4.80
2022-11-04T17:34:23.749Z,3.97
2022-11-04T17:36:53.962Z,5.37
2022-11-04T17:39:21.102Z,4.50
2022-11-04T17:42:07.026Z,4.47
2022-11-04T17:44:34.197Z,4.10
2022-11-04T17:47:01.461Z,4.40
2022-11-04T17:49:28.679Z,4.50
2022-11-04T17:52:00.682Z,5.17
2022-11-04T17:54:28.516Z,4.60
2022-11-04T17:56:55.970Z,5.87
2022-11-04T17:59:23.154Z,6.20
2022-11-04T18:01:50.433Z,7.87
2022-11-04T18:04:18.165Z,9.00
2022-11-04T18:06:45.310Z,5.83
2022-11-04T18:09:12.673Z,6.03
2022-11-04T18:11:58.768Z,4.67
2022-11-04T18:14:25.851Z,6.37
2022-11-04T18:16:53.007Z,5.13
2022-11-04T18:19:20.570Z,5.60
2022-11-04T18:21:47.852Z,5.60
2022-11-04T18:24:15.119Z,5.17
2022-11-04T18:26:42.543Z,5.20
2022-11-04T18:29:09.739Z,5.30
2022-11-04T18:31:37.622Z,5.70
2022-11-04T18:34:07.416Z,5.63
2022-11-04T18:36:34.711Z,8.77
2022-11-04T18:39:02.091Z,7.47
2022-11-04T18:41:29.187Z,8.70
2022-11-04T18:43:57.167Z,8.90
2022-11-04T18:46:24.309Z,8.17
2022-11-04T18:48:51.485Z,8.00
2022-11-04T18:51:19.584Z,7.63
2022-11-04T18:53:46.973Z,10.90
2022-11-04T18:56:14.806Z,10.70
2022-11-04T18:58:43.420Z,11.60
2022-11-04T19:01:11.592Z,11.37
2022-11-04T19:03:39.454Z,10.03
2022-11-04T19:06:09.940Z,10.20
2022-11-04T19:08:39.935Z,19.83
2022-11-04T19:11:21.162Z,10.77
2022-11-04T19:13:55.334Z,15.60
2022-11-04T19:16:22.498Z,10.40
2022-11-04T19:18:49.964Z,8.97
2022-11-04T19:21:17.967Z,8.70
2022-11-04T19:23:45.234Z,7.30
2022-11-04T19:26:13.160Z,7.20
2022-11-04T19:28:48.141Z,10.87
2022-11-04T19:31:19.811Z,7.90
2022-11-04T19:33:47.288Z,7.63
2022-11-04T19:36:14.840Z,7.90
2022-11-04T19:38:41.977Z,9.13
2022-11-04T19:41:30.766Z,7.83
2022-11-04T19:43:57.942Z,7.37
2022-11-04T19:46:25.102Z,8.50
2022-11-04T19:48:52.244Z,8.67
2022-11-04T19:51:19.361Z,8.53
2022-11-04T19:53:46.442Z,8.70
2022-11-04T19:56:16.514Z,10.50
2022-11-04T19:58:43.917Z,10.53
2022-11-04T20:01:11.356Z,12.40
2022-11-04T20:03:38.715Z,16.57
2022-11-04T20:06:07.487Z,20.07
2022-11-04T20:08:36.201Z,17.97
2022-11-04T20:11:03.641Z,13.80
2022-11-04T20:13:48.945Z,12.10
2022-11-04T20:16:22.347Z,13.67
2022-11-04T20:18:51.193Z,17.20
2022-11-04T20:21:18.603Z,21.50
2022-11-04T20:23:45.681Z,17.63
2022-11-04T20:26:20.381Z,15.77
2022-11-04T20:28:47.893Z,14.53
2022-11-04T20:31:19.157Z,14.77
2022-11-04T20:33:46.632Z,15.93
2022-11-04T20:36:13.917Z,16.90
2022-11-04T20:38:41.048Z,15.33
2022-11-04T20:41:08.995Z,15.30
2022-11-04T20:43:36.592Z,16.00
2022-11-04T20:46:04.780Z,18.40
2022-11-04T20:48:31.996Z,17.73
2022-11-04T20:50:59.142Z,14.80
2022-11-04T20:53:26.344Z,15.50
2022-11-04T20:55:53.686Z,14.40
2022-11-04T20:58:20.814Z,16.73
2022-11-04T21:00:47.914Z,15.87
2022-11-04T21:03:15.014Z,15.40
2022-11-04T21:05:42.125Z,13.30
2022-11-04T21:08:09.570Z,12.63
2022-11-04T21:10:40.075Z,12.57
2022-11-04T21:13:07.202Z,13.10
2022-11-04T21:15:40.522Z,11.43
2022-11-04T21:18:08.797Z,13.10
2022-11-04T21:20:38.915Z,13.57
2022-11-04T21:23:10.021Z,14.43
2022-11-04T21:25:44.171Z,11.57
2022-11-04T21:28:11.903Z,13.37
2022-11-04T21:30:39.747Z,11.50
2022-11-04T21:33:06.890Z,12.57
2022-11-04T21:35:37.543Z,11.60
2022-11-04T21:38:04.930Z,13.67
2022-11-04T21:40:32.104Z,15.37
2022-11-04T21:42:59.259Z,16.87
2022-11-04T21:45:26.364Z,15.70
2022-11-04T21:47:53.593Z,18.40
2022-11-04T21:50:20.719Z,15.97
2022-11-04T21:52:47.794Z,14.50
2022-11-04T21:55:14.947Z,13.10
2022-11-04T21:57:42.092Z,12.17
2022-11-04T22:00:09.950Z,12.60
2022-11-04T22:02:44.301Z,11.90
2022-11-04T22:05:11.845Z,13.60
2022-11-04T22:07:57.953Z,12.20
2022-11-04T22:10:25.368Z,11.27
2022-11-04T22:12:52.573Z,13.03
2022-11-04T22:15:38.927Z,12.60
2022-11-04T22:18:06.496Z,11.93
2022-11-04T22:20:35.630Z,12.57
2022-11-04T22:23:02.823Z,9.37
2022-11-04T22:25:30.718Z,10.60
2022-11-04T22:27:57.915Z,11.10
2022-11-04T22:30:25.440Z,12.00
2022-11-04T22:32:52.922Z,13.83
2022-11-04T22:35:20.127Z,10.80
2022-11-04T22:37:47.233Z,10.13
2022-11-04T22:40:14.303Z,9.73
2022-11-04T22:42:43.582Z,10.40
2022-11-04T22:45:16.357Z,10.03
2022-11-04T22:47:43.922Z,9.30
2022-11-04T22:50:11.108Z,10.43
2022-11-04T22:52:38.181Z,11.37
2022-11-04T22:55:05.434Z,10.27
2022-11-04T22:57:32.643Z,10.40
2022-11-04T22:59:59.771Z,10.77
2022-11-04T23:02:29.981Z,11.27
2022-11-04T23:04:59.489Z,10.13
2022-11-04T23:07:26.768Z,10.83
2022-11-04T23:10:12.495Z,11.20
2022-11-04T23:12:58.681Z,9.73
2022-11-04T23:15:44.949Z,10.67
2022-11-04T23:18:30.520Z,10.00
2022-11-04T23:21:16.305Z,10.07
2022-11-04T23:24:02.306Z,9.90
2022-11-04T23:26:29.542Z,9.57
2022-11-04T23:29:15.257Z,10.10
2022-11-04T23:31:42.388Z,10.10
2022-11-04T23:34:28.224Z,13.07
2022-11-04T23:37:13.692Z,9.87
2022-11-04T23:39:40.961Z,9.50
2022-11-04T23:42:17.128Z,12.07
2022-11-04T23:45:28.846Z,11.80
2022-11-04T23:48:14.752Z,11.13
2022-11-04T23:51:00.883Z,12.53
2022-11-04T23:53:46.992Z,14.10
2022-11-04T23:56:32.989Z,22.23
2022-11-04T23:59:26.303Z,17.50
